Time;durP1;ratioP1;P1;durP2;ratioP2;P2;SDS_P1;SDS_P2;PMS_P1;PMS_P2;Temp;Humidity;BMP_temperature;BMP_pressure;BME280_temperature;BME280_humidity;BME280_pressure;Samples;Min_cycle;Max_cycle;Signal;HPM_P1;HPM_P2
2021/12/12 00:00:40;;;;;;;22.40;12.23;;;;;;;3.15;92.38;102036.59;4979104;28;20033;-68
2021/12/12 00:03:21;;;;;;;21.48;11.60;;;;;;;3.13;92.45;102028.09;4968809;28;20065;-69
2021/12/12 00:05:55;;;;;;;19.75;12.02;;;;;;;3.15;92.63;102036.59;4973224;28;20031;-69
2021/12/12 00:08:22;;;;;;;23.25;12.82;;;;;;;3.15;92.76;102026.34;4961143;28;20027;-70
2021/12/12 00:10:53;;;;;;;25.05;15.25;;;;;;;3.15;92.72;102026.34;4972007;28;20490;-69
2021/12/12 00:13:23;;;;;;;28.98;16.00;;;;;;;3.15;92.66;102036.59;4972958;28;20051;-73
2021/12/12 00:15:48;;;;;;;24.08;12.82;;;;;;;3.17;92.58;102034.81;4973208;28;20048;-71
2021/12/12 00:18:14;;;;;;;21.48;11.98;;;;;;;3.18;92.40;102023.66;4973123;28;20459;-69
2021/12/12 00:20:39;;;;;;;25.83;12.45;;;;;;;3.18;92.57;102018.53;4972839;28;20576;-68
2021/12/12 00:23:07;;;;;;;24.80;13.20;;;;;;;3.20;92.15;102024.44;4955346;28;20041;-68
2021/12/12 00:25:40;;;;;;;25.35;12.80;;;;;;;3.22;92.72;102021.03;4972996;28;20030;-69
2021/12/12 00:28:08;;;;;;;23.75;12.40;;;;;;;3.22;92.46;102021.84;4982896;28;20056;-69
2021/12/12 00:30:34;;;;;;;26.23;12.80;;;;;;;3.25;92.42;102010.66;4991847;28;20149;-68
2021/12/12 00:33:01;;;;;;;26.50;12.50;;;;;;;3.26;92.77;102014.88;4991573;28;20145;-69
2021/12/12 00:35:26;;;;;;;23.45;11.73;;;;;;;3.24;92.57;102014.09;4993336;28;20164;-69
2021/12/12 00:37:59;;;;;;;25.50;12.57;;;;;;;3.26;92.35;102012.31;4992117;28;20117;-69
2021/12/12 00:40:37;;;;;;;21.52;11.77;;;;;;;3.29;92.13;102007.09;4992054;28;20061;-68
2021/12/12 00:43:14;;;;;;;23.97;12.07;;;;;;;3.27;92.35;102008.88;4991974;28;20068;-68
2021/12/12 00:45:41;;;;;;;21.83;11.63;;;;;;;3.28;92.38;102006.28;4992213;28;20892;-68
2021/12/12 00:48:06;;;;;;;24.33;11.45;;;;;;;3.30;92.43;102008.78;4991389;28;20034;-67
2021/12/12 00:50:36;;;;;;;21.08;11.48;;;;;;;3.30;92.12;102008.78;4988785;28;20490;-69
2021/12/12 00:53:05;;;;;;;23.63;11.18;;;;;;;3.30;92.61;102008.78;4987362;28;20037;-68
2021/12/12 00:55:37;;;;;;;22.50;11.57;;;;;;;3.31;92.36;102000.19;5001071;28;20034;-68
2021/12/12 00:58:06;;;;;;;27.52;15.02;;;;;;;3.31;92.66;101987.38;4981698;28;20490;-69
2021/12/12 01:00:38;;;;;;;22.55;11.73;;;;;;;3.32;92.68;101989.03;4991352;28;20034;-69
2021/12/12 01:03:07;;;;;;;22.60;11.65;;;;;;;3.32;92.53;101989.03;4970576;28;20065;-69
2021/12/12 01:05:32;;;;;;;24.45;11.68;;;;;;;3.32;92.57;101971.09;4989510;28;20485;-70
2021/12/12 01:07:58;;;;;;;23.58;11.82;;;;;;;3.33;93.04;101977.94;4991706;28;20034;-68
2021/12/12 01:10:33;;;;;;;24.85;11.48;;;;;;;3.32;92.65;101976.22;4991104;28;20030;-69
2021/12/12 01:13:00;;;;;;;24.60;11.82;;;;;;;3.33;92.87;101993.31;4991454;28;20462;-68
2021/12/12 01:15:36;;;;;;;19.05;11.25;;;;;;;3.34;92.86;101989.84;4991677;28;20058;-68
2021/12/12 01:18:12;;;;;;;23.05;11.35;;;;;;;3.36;92.91;101993.19;4991127;28;20487;-68
2021/12/12 01:20:44;;;;;;;23.48;11.60;;;;;;;3.35;93.17;101981.25;4974479;28;20023;-69
2021/12/12 01:23:16;;;;;;;21.23;10.88;;;;;;;3.37;93.06;101994.88;4978793;28;20109;-69
2021/12/12 01:25:44;;;;;;;22.67;11.25;;;;;;;3.35;93.29;101984.66;4973537;28;20034;-68
2021/12/12 01:28:12;;;;;;;20.20;11.05;;;;;;;3.38;93.09;101987.16;4991608;28;20077;-69
2021/12/12 01:30:37;;;;;;;25.70;11.68;;;;;;;3.39;92.98;101988.81;4990694;28;20031;-69
2021/12/12 01:33:03;;;;;;;26.83;11.38;;;;;;;3.38;93.12;101988.84;4998692;28;20036;-68
2021/12/12 01:35:29;;;;;;;27.25;11.65;;;;;;;3.41;92.98;101992.16;4995134;28;20486;-68
2021/12/12 01:40:51;;;;;;;21.73;10.93;;;;;;;3.42;93.25;101980.16;4992543;28;20043;-69
2021/12/12 01:43:22;;;;;;;23.58;11.73;;;;;;;3.42;93.22;101983.56;4991664;28;20056;-68
2021/12/12 01:45:54;;;;;;;20.23;11.25;;;;;;;3.43;93.21;101979.28;4990556;28;20026;-68
2021/12/12 01:48:34;;;;;;;23.17;11.63;;;;;;;3.44;93.17;101988.63;4973616;28;20088;-69
2021/12/12 01:51:04;;;;;;;25.40;11.90;;;;;;;3.41;93.59;101983.63;4990468;28;20049;-68
2021/12/12 01:53:36;;;;;;;25.58;12.23;;;;;;;3.46;93.42;101989.44;4973732;28;20030;-69
2021/12/12 01:56:02;;;;;;;24.23;11.95;;;;;;;3.47;93.47;101978.28;4978991;28;20032;-68
2021/12/12 01:58:30;;;;;;;24.85;12.40;;;;;;;3.44;93.72;101983.50;4996503;28;20038;-69
2021/12/12 02:01:04;;;;;;;27.02;11.77;;;;;;;3.49;93.50;101984.19;4988832;28;20072;-68
2021/12/12 02:03:33;;;;;;;25.30;11.57;;;;;;;3.49;93.63;101983.38;4969354;28;20378;-68
2021/12/12 02:06:01;;;;;;;24.20;12.45;;;;;;;3.50;93.70;101985.91;4994380;28;20037;-69
2021/12/12 02:08:29;;;;;;;24.40;12.05;;;;;;;3.49;93.91;101979.06;4977436;28;20030;-70
2021/12/12 02:11:01;;;;;;;23.08;11.73;;;;;;;3.52;94.03;101984.09;4993864;28;20022;-68
2021/12/12 02:13:30;;;;;;;24.50;11.70;;;;;;;3.52;93.88;101978.97;4994262;28;20035;-67
2021/12/12 02:15:59;;;;;;;27.63;12.57;;;;;;;3.54;94.09;101987.44;4994212;28;20038;-68
2021/12/12 02:18:29;;;;;;;;;;;;;;;3.62;93.81;101970.09;4994989;28;20030;-68
2021/12/12 02:37:46;;;;;;;30.55;12.85;;;;;;;3.59;94.50;101949.66;5000109;28;20041;-69
2021/12/12 02:40:18;;;;;;;23.75;12.05;;;;;;;3.62;94.45;101949.56;4988963;28;20042;-68
2021/12/12 02:42:45;;;;;;;30.38;13.18;;;;;;;3.60;94.47;101951.31;4992410;28;20160;-68
2021/12/12 02:45:14;;;;;;;26.13;12.15;;;;;;;3.62;94.96;101947.00;4994092;28;20725;-68
2021/12/12 02:47:39;;;;;;;23.60;11.63;;;;;;;3.65;94.84;101944.31;4994250;28;20034;-68
2021/12/12 02:50:13;;;;;;;25.73;11.73;;;;;;;3.67;95.04;101947.69;4993713;28;20113;-69
2021/12/12 02:52:43;;;;;;;26.52;11.98;;;;;;;3.65;95.28;101939.19;4992132;28;20223;-69
2021/12/12 02:55:14;;;;;;;24.35;11.82;;;;;;;3.68;95.10;101939.09;4996719;28;20037;-69
2021/12/12 02:57:40;;;;;;;25.42;11.77;;;;;;;3.71;95.35;101944.09;4976352;28;20034;-69
2021/12/12 03:00:09;;;;;;;23.48;11.48;;;;;;;3.71;95.43;101944.09;4993826;28;20463;-69
2021/12/12 03:02:42;;;;;;;;;;;;;;;3.80;94.90;101947.25;4994026;28;20060;-68
2021/12/12 03:05:08;;;;;;;24.50;12.48;;;;;;;3.74;94.62;101950.88;4993817;28;20556;-67
2021/12/12 03:07:34;;;;;;;23.35;11.15;;;;;;;3.76;95.14;101945.66;4994047;28;20197;-68
2021/12/12 03:10:00;;;;;;;25.48;11.55;;;;;;;3.77;95.62;101937.06;4992753;28;20046;-67
2021/12/12 03:12:33;;;;;;;24.02;11.63;;;;;;;3.78;95.52;101933.63;4993797;28;20105;-68
2021/12/12 03:15:11;;;;;;;25.75;11.20;;;;;;;3.76;95.74;101936.25;4993723;28;20085;-68
2021/12/12 03:17:38;;;;;;;24.20;11.70;;;;;;;3.79;95.73;101935.31;4982222;28;20032;-69
2021/12/12 03:20:23;;;;;;;25.17;11.98;;;;;;;3.81;95.64;101933.53;4993359;28;20399;-69
2021/12/12 03:22:48;;;;;;;23.88;11.52;;;;;;;3.82;96.05;101919.78;4993603;28;20478;-69
2021/12/12 03:25:14;;;;;;;26.77;11.77;;;;;;;3.83;95.73;101917.16;4972838;28;20041;-69
2021/12/12 03:27:39;;;;;;;27.25;12.35;;;;;;;3.84;96.07;101902.59;4984613;28;20054;-68
2021/12/12 03:30:05;;;;;;;26.80;12.40;;;;;;;3.86;96.26;101896.53;4973824;28;20097;-67
2021/12/12 03:32:31;;;;;;;21.90;11.73;;;;;;;3.86;96.42;101900.84;4973635;28;20105;-68
2021/12/12 03:34:58;;;;;;;26.83;12.40;;;;;;;3.89;96.17;101898.13;4968092;28;20126;-68
2021/12/12 03:37:28;;;;;;;20.55;11.82;;;;;;;3.90;96.21;101892.09;4973549;28;20034;-68
2021/12/12 03:39:57;;;;;;;21.67;11.38;;;;;;;3.91;96.28;101904.06;4972846;28;20033;-68
2021/12/12 03:42:25;;;;;;;22.45;11.88;;;;;;;3.92;96.28;101901.44;4973812;28;20078;-69
2021/12/12 03:44:53;;;;;;;23.73;12.00;;;;;;;3.94;96.55;101909.91;4973338;28;20034;-68
2021/12/12 03:47:26;;;;;;;29.60;12.43;;;;;;;3.94;96.47;101903.94;4973745;28;20038;-68
2021/12/12 03:49:53;;;;;;;26.27;12.60;;;;;;;3.96;96.52;101912.44;4971721;28;20069;-68
2021/12/12 03:52:20;;;;;;;21.75;12.32;;;;;;;3.97;96.85;101914.13;4971229;28;20032;-68
2021/12/12 03:54:48;;;;;;;20.98;11.65;;;;;;;3.99;96.73;101907.19;4973504;28;20058;-68
2021/12/12 03:57:17;;;;;;;25.52;12.18;;;;;;;3.99;97.19;101912.31;4972991;28;20041;-69
2021/12/12 03:59:42;;;;;;;22.38;11.38;;;;;;;4.02;96.78;101912.22;4971756;28;20037;-69
2021/12/12 04:02:08;;;;;;;22.30;11.75;;;;;;;4.04;97.06;101905.28;4973370;28;20034;-69
2021/12/12 04:04:37;;;;;;;23.27;10.75;;;;;;;4.07;97.25;101915.47;4973621;28;20030;-68
2021/12/12 04:07:09;;;;;;;19.20;11.15;;;;;;;4.09;97.34;101913.66;4973259;28;20476;-69
2021/12/12 04:09:35;;;;;;;21.40;11.18;;;;;;;4.06;97.22;101902.66;4971341;28;20031;-69
2021/12/12 04:12:09;;;;;;;21.77;11.30;;;;;;;4.13;97.62;101915.22;4973069;28;20074;-69
2021/12/12 04:14:34;;;;;;;21.77;11.13;;;;;;;4.16;97.30;101909.97;4973101;28;20031;-69
2021/12/12 04:17:05;;;;;;;18.23;11.00;;;;;;;4.15;97.50;101921.13;4972813;28;20098;-69
2021/12/12 04:19:30;;;;;;;21.38;11.38;;;;;;;4.16;97.32;101909.97;4973026;28;20114;-69
2021/12/12 04:21:56;;;;;;;19.17;10.95;;;;;;;4.21;97.34;101907.22;4955665;28;20121;-68
2021/12/12 04:24:26;;;;;;;16.20;10.93;;;;;;;4.21;97.40;101913.19;4972311;28;20069;-69
2021/12/12 04:26:53;;;;;;;16.23;10.45;;;;;;;4.24;97.49;101913.09;4955749;28;20034;-69
2021/12/12 04:29:32;;;;;;;17.23;11.05;;;;;;;4.24;97.52;101920.81;4988851;28;20089;-69
2021/12/12 04:32:02;;;;;;;17.73;10.73;;;;;;;4.26;97.44;101911.31;4988882;28;20041;-69
2021/12/12 04:34:31;;;;;;;16.13;10.75;;;;;;;4.26;97.43;101907.91;4993825;28;20023;-68
2021/12/12 04:37:03;;;;;;;16.98;11.13;;;;;;;4.28;97.48;101910.41;4992132;28;20026;-68
2021/12/12 04:39:32;;;;;;;18.80;10.55;;;;;;;4.28;97.27;101907.84;4991404;28;20403;-67
2021/12/12 04:42:03;;;;;;;18.75;10.90;;;;;;;4.29;97.48;101915.47;5002379;28;20029;-68
2021/12/12 04:44:32;;;;;;;16.98;10.65;;;;;;;4.32;97.52;101919.66;4975763;28;20026;-68
2021/12/12 04:49:55;;;;;;;16.73;10.68;;;;;;;4.32;97.90;101909.41;4991652;28;20073;-67
2021/12/12 04:52:28;;;;;;;17.45;10.57;;;;;;;4.34;97.53;101912.72;4992270;28;20022;-68
2021/12/12 04:55:22;;;;;;;16.50;11.05;;;;;;;4.34;97.87;101912.72;4985959;28;20022;-67
2021/12/12 04:57:58;;;;;;;18.05;10.43;;;;;;;4.36;97.56;101905.78;4963764;28;20414;-69
2021/12/12 05:00:29;;;;;;;18.23;10.68;;;;;;;4.39;97.76;101921.09;4973447;28;20080;-68
2021/12/12 05:03:09;;;;;;;18.65;10.98;;;;;;;4.38;97.86;101919.44;4974391;28;20056;-67
2021/12/12 05:05:42;;;;;;;15.02;10.32;;;;;;;4.39;97.73;101928.81;4991601;28;20038;-69
2021/12/12 05:08:14;;;;;;;15.95;10.90;;;;;;;4.40;97.90;101933.03;4991757;28;20026;-69
2021/12/12 05:10:46;;;;;;;16.85;10.70;;;;;;;4.42;97.95;101941.56;4991065;28;20121;-67
2021/12/12 05:13:44;;;;;;;14.00;9.82;;;;;;;4.42;97.99;101936.41;4974092;28;20073;-67
2021/12/12 05:16:19;;;;;;;14.52;10.00;;;;;;;4.44;97.79;101944.88;4977048;28;20053;-68
2021/12/12 05:18:51;;;;;;;15.63;10.77;;;;;;;4.45;97.89;101951.69;4990245;28;20105;-68
2021/12/12 05:21:24;;;;;;;13.15;10.57;;;;;;;4.46;97.72;101937.94;4991232;28;20047;-68
2021/12/12 05:23:51;;;;;;;13.30;9.95;;;;;;;4.47;97.68;101937.03;4991546;28;20034;-69
2021/12/12 05:26:22;;;;;;;15.18;10.80;;;;;;;4.49;98.35;101933.53;4991242;28;20080;-67
2021/12/12 05:29:12;;;;;;;13.40;10.40;;;;;;;4.53;97.67;101934.28;4991414;28;20050;-69
2021/12/12 05:31:38;;;;;;;17.30;11.43;;;;;;;4.52;98.06;101935.97;4966963;28;20104;-68
2021/12/12 05:34:05;;;;;;;15.55;11.07;;;;;;;4.54;97.96;101941.06;4992278;28;20058;-67
2021/12/12 05:36:34;;;;;;;15.93;10.73;;;;;;;4.54;98.32;101935.94;4990471;28;20038;-68
2021/12/12 05:39:00;;;;;;;16.52;10.75;;;;;;;4.57;98.25;101940.94;4991316;28;20057;-68
2021/12/12 05:41:26;;;;;;;13.68;10.65;;;;;;;4.55;97.99;101940.19;4983789;28;20035;-69
2021/12/12 05:43:57;;;;;;;18.75;11.43;;;;;;;4.58;98.16;101942.63;4991096;28;20030;-69
2021/12/12 05:46:23;;;;;;;16.83;11.20;;;;;;;4.60;98.39;101943.41;4977946;28;20049;-69
2021/12/12 05:48:51;;;;;;;14.95;10.77;;;;;;;4.62;98.22;101943.34;4972426;28;20065;-67
2021/12/12 05:51:18;;;;;;;16.15;11.05;;;;;;;4.62;98.41;101939.03;4986889;28;20103;-68
2021/12/12 05:53:43;;;;;;;15.38;11.25;;;;;;;4.64;98.63;101939.81;4990928;28;20490;-68
2021/12/12 05:56:09;;;;;;;17.40;11.38;;;;;;;4.66;98.45;101950.88;4990365;28;20031;-68
2021/12/12 05:58:36;;;;;;;14.93;11.40;;;;;;;4.67;98.28;101942.25;4973178;28;20022;-68
2021/12/12 06:01:06;;;;;;;13.32;11.70;;;;;;;4.69;98.69;101950.75;4989099;28;20079;-69
2021/12/12 06:03:38;;;;;;;14.00;11.63;;;;;;;4.69;98.66;101950.75;5010061;28;20025;-68
2021/12/12 06:06:13;;;;;;;14.20;11.23;;;;;;;4.69;98.78;101950.75;4991276;28;20057;-69
2021/12/12 06:08:42;;;;;;;16.30;11.77;;;;;;;4.75;98.89;101950.50;4990572;28;20497;-68
2021/12/12 06:11:07;;;;;;;14.38;11.38;;;;;;;4.76;98.73;101952.19;4982446;28;20034;-68
2021/12/12 06:13:37;;;;;;;15.60;11.57;;;;;;;4.79;98.74;101957.19;4986079;28;20528;-69
2021/12/12 06:16:03;;;;;;;14.82;11.65;;;;;;;4.82;98.89;101960.53;4991443;28;20459;-68
2021/12/12 06:18:31;;;;;;;14.15;11.55;;;;;;;4.80;98.64;101956.31;4972793;28;20038;-67
2021/12/12 06:20:57;;;;;;;16.17;12.17;;;;;;;4.86;98.93;101962.09;4990602;28;20033;-68
2021/12/12 06:23:24;;;;;;;16.00;12.15;;;;;;;4.89;98.83;101967.13;4991165;28;20065;-69
2021/12/12 06:25:50;;;;;;;15.45;12.77;;;;;;;4.91;98.65;101967.91;4990612;28;20030;-68
2021/12/12 06:28:24;;;;;;;17.73;12.85;;;;;;;4.90;98.70;101963.66;4979698;28;20051;-68
2021/12/12 06:30:50;;;;;;;14.88;12.55;;;;;;;4.91;98.79;101965.31;4970911;28;20387;-67
2021/12/12 06:33:15;;;;;;;17.52;13.45;;;;;;;4.94;98.61;101967.78;4971989;28;20027;-68
2021/12/12 06:35:41;;;;;;;15.77;13.45;;;;;;;4.97;99.07;101970.22;4954243;28;20077;-68
2021/12/12 06:38:09;;;;;;;19.17;13.90;;;;;;;4.97;98.86;101970.22;4968073;28;20038;-70
2021/12/12 06:40:37;;;;;;;16.02;13.25;;;;;;;4.98;98.89;101961.59;4974178;28;20035;-68
2021/12/12 06:43:06;;;;;;;15.90;13.68;;;;;;;5.00;98.80;101970.94;4970872;28;20534;-68
2021/12/12 06:45:33;;;;;;;19.55;14.90;;;;;;;5.02;99.44;101970.88;4959676;28;20094;-68
2021/12/12 06:47:59;;;;;;;18.25;14.93;;;;;;;5.03;98.95;101959.69;4942924;28;20027;-68
2021/12/12 06:50:27;;;;;;;17.30;14.43;;;;;;;5.04;98.92;101966.50;4974351;28;20145;-68
2021/12/12 06:52:54;;;;;;;18.80;13.98;;;;;;;5.07;98.83;101971.53;4974704;28;20053;-68
2021/12/12 06:55:20;;;;;;;16.77;14.60;;;;;;;5.06;99.21;101962.16;4974680;28;20122;-68
2021/12/12 06:57:48;;;;;;;17.63;14.98;;;;;;;5.08;99.44;101965.50;4973688;28;20419;-68
2021/12/12 07:00:18;;;;;;;20.08;14.77;;;;;;;5.11;99.21;101970.53;4970862;28;20027;-68
2021/12/12 07:02:44;;;;;;;21.77;15.75;;;;;;;5.10;99.33;101955.97;4974785;28;20066;-69
2021/12/12 07:05:21;;;;;;;20.83;15.13;;;;;;;5.15;99.46;101958.34;4974182;28;20453;-70
2021/12/12 07:07:49;;;;;;;21.90;15.90;;;;;;;5.17;98.88;101954.00;4967724;28;20184;-69
2021/12/12 07:10:18;;;;;;;24.80;16.85;;;;;;;5.17;99.38;101957.41;4973776;28;20035;-68
2021/12/12 07:12:45;;;;;;;20.58;16.25;;;;;;;5.19;99.30;101955.59;4956593;28;20026;-70
2021/12/12 07:15:15;;;;;;;22.45;16.75;;;;;;;5.22;99.27;101963.22;4961941;28;20042;-70
2021/12/12 07:17:41;;;;;;;21.80;17.60;;;;;;;5.25;99.79;101970.78;4964489;28;20038;-67
2021/12/12 07:20:10;;;;;;;23.63;17.13;;;;;;;5.26;100.00;101962.16;4970485;28;20137;-67
2021/12/12 07:22:36;;;;;;;24.92;17.58;;;;;;;5.29;99.45;101976.66;4967928;28;20106;-67
2021/12/12 07:25:04;;;;;;;23.17;16.90;;;;;;;5.32;99.80;101967.06;4967519;28;20106;-69
2021/12/12 07:27:30;;;;;;;24.17;17.45;;;;;;;5.31;99.50;101969.69;4968292;28;20070;-69
2021/12/12 07:29:56;;;;;;;26.27;18.63;;;;;;;5.35;99.53;101988.44;4969508;28;20031;-68
2021/12/12 07:32:22;;;;;;;25.17;19.38;;;;;;;5.36;99.96;101972.09;4970055;28;20038;-68
2021/12/12 07:34:47;;;;;;;27.83;19.08;;;;;;;5.40;99.65;101977.06;4956931;28;20031;-67
2021/12/12 07:37:14;;;;;;;29.15;19.63;;;;;;;5.42;99.97;101989.84;4970104;28;20034;-68
2021/12/12 07:39:42;;;;;;;27.77;18.60;;;;;;;5.42;100.00;101993.25;4973221;28;20042;-68
2021/12/12 07:42:09;;;;;;;27.15;18.65;;;;;;;5.45;99.52;101997.41;4955932;28;20070;-68
2021/12/12 07:44:38;;;;;;;30.67;19.05;;;;;;;5.46;99.33;101994.81;4972636;28;20039;-68
2021/12/12 07:47:05;;;;;;;26.15;19.25;;;;;;;5.47;99.92;101990.50;4952282;28;20054;-68
2021/12/12 07:49:38;;;;;;;27.90;19.38;;;;;;;5.50;99.92;101987.78;4971606;28;20034;-68
2021/12/12 07:52:11;;;;;;;28.55;19.15;;;;;;;5.51;100.00;101997.19;4968839;28;20075;-68
2021/12/12 07:54:37;;;;;;;26.55;19.70;;;;;;;5.51;99.47;101998.03;4953581;28;20058;-68
2021/12/12 07:57:04;;;;;;;28.63;19.83;;;;;;;5.51;100.00;102000.59;4968924;28;20070;-69
2021/12/12 07:59:31;;;;;;;31.13;20.02;;;;;;;5.54;99.88;101997.03;4972749;28;20023;-68
2021/12/12 08:01:57;;;;;;;28.42;19.10;;;;;;;5.56;99.63;102008.09;4973525;28;20031;-67
2021/12/12 08:04:27;;;;;;;28.13;19.65;;;;;;;5.58;100.00;102006.31;4971513;28;20085;-68
2021/12/12 08:06:52;;;;;;;28.75;18.52;;;;;;;5.58;100.00;102006.31;4973391;28;20042;-68
2021/12/12 08:09:20;;;;;;;27.52;19.42;;;;;;;5.60;99.94;102007.09;4970018;28;20031;-68
2021/12/12 08:11:46;;;;;;;30.20;20.17;;;;;;;5.62;100.00;102010.44;4967187;28;20059;-68
2021/12/12 08:14:17;;;;;;;29.23;20.15;;;;;;;5.63;99.93;102022.41;4960100;28;20059;-68
2021/12/12 08:16:44;;;;;;;29.88;19.55;;;;;;;5.66;100.00;102022.25;4970511;28;20031;-68
2021/12/12 08:19:11;;;;;;;31.15;20.77;;;;;;;5.67;99.98;102023.94;4973050;28;20490;-69
2021/12/12 08:21:38;;;;;;;30.95;20.85;;;;;;;5.68;100.00;102024.78;4972759;28;20077;-69
2021/12/12 08:24:11;;;;;;;31.25;20.77;;;;;;;5.71;100.00;102025.50;4968618;28;20055;-68
2021/12/12 08:26:39;;;;;;;30.13;20.73;;;;;;;5.73;100.00;102030.56;4971654;28;20034;-69
2021/12/12 08:29:06;;;;;;;30.63;21.00;;;;;;;5.75;100.00;102027.03;4972571;28;20069;-68
2021/12/12 08:31:33;;;;;;;34.88;21.33;;;;;;;5.78;100.00;102032.03;4969769;28;20042;-68
2021/12/12 08:33:58;;;;;;;29.17;21.05;;;;;;;5.80;100.00;102034.56;4972850;28;20168;-68
2021/12/12 08:36:24;;;;;;;33.05;21.90;;;;;;;5.83;100.00;102039.59;4966802;28;20466;-68
2021/12/12 08:38:51;;;;;;;29.63;21.38;;;;;;;5.85;100.00;102043.78;4967362;28;20411;-68
2021/12/12 08:41:17;;;;;;;31.52;21.90;;;;;;;5.87;100.00;102051.44;4969118;28;20034;-69
2021/12/12 08:43:43;;;;;;;31.95;20.88;;;;;;;5.90;100.00;102046.13;4967097;28;20081;-67
2021/12/12 08:46:12;;;;;;;32.25;21.75;;;;;;;5.93;100.00;102050.38;4964882;28;20026;-68
2021/12/12 08:48:46;;;;;;;27.55;20.65;;;;;;;5.96;100.00;102050.22;4971194;28;20045;-68
2021/12/12 08:51:17;;;;;;;31.48;20.98;;;;;;;5.96;100.00;102050.22;4952839;28;20054;-69
2021/12/12 08:53:46;;;;;;;40.08;28.48;;;;;;;5.97;100.00;102054.50;4971119;28;20052;-68
2021/12/12 08:56:19;;;;;;;32.55;20.67;;;;;;;5.99;100.00;102045.78;4960657;28;20065;-68
2021/12/12 08:58:47;;;;;;;36.47;21.30;;;;;;;6.03;100.00;102061.97;4964143;28;20117;-68
2021/12/12 09:01:16;;;;;;;33.10;20.52;;;;;;;6.06;100.00;102056.66;4945864;28;20486;-67
2021/12/12 09:03:53;;;;;;;33.55;21.63;;;;;;;6.08;100.00;102057.44;4963525;28;20057;-67
2021/12/12 09:06:22;;;;;;;32.30;21.33;;;;;;;6.05;100.00;102058.41;4951154;28;20102;-69
2021/12/12 09:08:53;;;;;;;31.27;20.73;;;;;;;6.11;100.00;102075.34;4971644;28;20035;-68
2021/12/12 09:11:26;;;;;;;33.58;21.55;;;;;;;6.12;100.00;102066.69;4971876;28;20026;-68
2021/12/12 09:14:06;;;;;;;33.17;21.23;;;;;;;6.15;100.00;102081.19;4960493;28;20035;-66
2021/12/12 09:16:54;;;;;;;31.65;20.83;;;;;;;6.17;100.00;102082.78;4960761;28;20561;-67
2021/12/12 09:19:26;;;;;;;31.25;20.83;;;;;;;6.18;100.00;102087.03;4969017;28;20035;-68
2021/12/12 09:22:01;;;;;;;33.85;21.27;;;;;;;6.19;100.00;102086.13;4965567;28;20105;-68
2021/12/12 09:24:43;;;;;;;34.95;21.25;;;;;;;6.23;100.00;102094.56;4969345;28;20065;-70
2021/12/12 09:27:14;;;;;;;29.70;19.45;;;;;;;6.21;100.00;102091.25;4969905;28;20121;-73
2021/12/12 09:29:45;;;;;;;31.58;20.17;;;;;;;6.23;100.00;102105.72;4971588;28;20491;-69
2021/12/12 09:32:21;;;;;;;27.75;20.00;;;;;;;6.26;100.00;102105.59;4950368;28;20034;-68
2021/12/12 09:34:59;;;;;;;33.92;20.10;;;;;;;6.30;100.00;102101.13;4971389;28;20022;-68
2021/12/12 09:37:31;;;;;;;32.78;19.95;;;;;;;6.26;100.00;102100.44;4967979;28;20030;-68
2021/12/12 09:40:06;;;;;;;30.38;19.52;;;;;;;6.31;100.00;102108.81;4973712;28;20054;-67
2021/12/12 09:42:49;;;;;;;32.40;19.88;;;;;;;6.32;100.00;102100.19;4960842;28;20042;-67
2021/12/12 09:45:35;;;;;;;33.30;19.95;;;;;;;6.34;100.00;102116.41;4970902;28;20022;-67
2021/12/12 09:51:43;;;;;;;32.03;19.50;;;;;;;6.41;100.00;102106.66;4968505;28;20085;-66
2021/12/12 09:54:34;;;;;;;29.75;18.67;;;;;;;6.44;100.00;102110.84;4950344;29;20031;-67
2021/12/12 09:57:14;;;;;;;29.65;19.33;;;;;;;6.42;100.00;102104.91;4967418;28;20030;-66
2021/12/12 10:00:06;;;;;;;32.05;20.00;;;;;;;6.48;100.00;102104.63;4969380;28;20030;-69
2021/12/12 10:02:41;;;;;;;30.45;20.02;;;;;;;6.48;100.00;102105.50;4967183;28;20031;-66
2021/12/12 10:05:35;;;;;;;30.10;19.92;;;;;;;6.49;100.00;102106.34;4967548;28;20035;-67
2021/12/12 10:08:24;;;;;;;26.05;18.85;;;;;;;6.48;100.00;102107.22;4961078;28;20097;-66
2021/12/12 10:11:08;;;;;;;29.95;19.45;;;;;;;6.51;100.00;102110.50;4959623;28;20035;-68
2021/12/12 10:13:39;;;;;;;32.53;20.52;;;;;;;6.52;100.00;102101.03;4967652;28;20031;-66
2021/12/12 10:16:17;;;;;;;33.13;20.63;;;;;;;6.53;100.00;102102.69;4967127;28;20033;-66
2021/12/12 10:19:02;;;;;;;26.75;19.35;;;;;;;6.56;100.00;102110.31;4965826;28;20031;-68
2021/12/12 10:21:50;;;;;;;27.45;19.10;;;;;;;6.55;100.00;102111.22;4967465;28;20062;-66
2021/12/12 10:24:25;;;;;;;30.50;19.30;;;;;;;6.61;100.00;102105.78;4969058;28;20034;-66
2021/12/12 10:27:38;;;;;;;31.20;20.13;;;;;;;6.62;100.00;102105.72;4969638;28;20082;-66
2021/12/12 10:30:22;;;;;;;26.35;18.92;;;;;;;6.66;100.00;102109.00;4903827;29;20037;-66
2021/12/12 10:33:02;;;;;;;28.98;19.55;;;;;;;6.65;100.00;102112.47;4901432;29;20048;-66
2021/12/12 10:35:34;;;;;;;29.63;19.98;;;;;;;6.70;100.00;102113.09;4944276;28;20049;-66
2021/12/12 10:38:24;;;;;;;30.73;20.52;;;;;;;6.72;100.00;102108.72;4956435;28;20035;-66
2021/12/12 10:41:03;;;;;;;29.35;19.67;;;;;;;6.73;100.00;102115.56;4955365;28;20159;-66
2021/12/12 10:43:40;;;;;;;30.73;20.25;;;;;;;6.75;100.00;102103.41;4966438;28;20475;-66
2021/12/12 10:46:28;;;;;;;31.50;20.15;;;;;;;6.80;100.00;102111.78;4975072;28;20086;-67
2021/12/12 10:49:17;;;;;;;28.57;19.80;;;;;;;6.81;100.00;102118.63;4959641;28;20065;-67
2021/12/12 10:51:51;;;;;;;30.00;19.52;;;;;;;6.82;100.00;102115.13;4955577;28;20401;-67
2021/12/12 10:54:26;;;;;;;31.33;20.48;;;;;;;6.85;100.00;102115.00;4969641;28;20476;-65
2021/12/12 10:57:03;;;;;;;30.90;20.58;;;;;;;6.88;100.00;102114.00;4957953;28;20027;-66
2021/12/12 10:59:36;;;;;;;30.13;19.35;;;;;;;6.91;100.00;102113.88;4956686;28;20472;-67
2021/12/12 11:02:08;;;;;;;29.33;19.13;;;;;;;6.95;100.00;102120.59;4962337;28;20118;-66
2021/12/12 11:04:37;;;;;;;30.90;20.10;;;;;;;6.98;100.00;102104.13;4973977;28;20120;-67
2021/12/12 11:07:12;;;;;;;32.45;19.98;;;;;;;7.01;100.00;102104.00;4980126;28;20026;-67
2021/12/12 11:09:54;;;;;;;30.02;19.38;;;;;;;7.03;100.00;102097.84;4962982;28;20058;-67
2021/12/12 11:12:28;;;;;;;31.92;19.98;;;;;;;7.05;100.00;102105.50;4966461;28;20463;-66
2021/12/12 11:15:03;;;;;;;28.85;19.95;;;;;;;7.08;100.00;102100.22;4963076;28;20427;-66
2021/12/12 11:17:37;;;;;;;30.30;19.25;;;;;;;7.09;100.00;102101.88;4974189;28;20066;-67
2021/12/12 11:20:38;;;;;;;28.27;20.13;;;;;;;7.15;100.00;102101.59;4974546;28;20023;-67
2021/12/12 11:23:19;;;;;;;27.25;19.00;;;;;;;7.17;100.00;102102.38;4973791;28;20062;-67
2021/12/12 11:25:54;;;;;;;26.60;18.65;;;;;;;7.17;100.00;102104.97;4974237;28;20055;-67
2021/12/12 11:28:28;;;;;;;25.17;17.42;;;;;;;7.19;100.00;102103.13;4973882;28;20046;-67
2021/12/12 11:31:08;;;;;;;26.80;17.73;;;;;;;7.22;100.00;102096.97;4973434;28;20497;-66
2021/12/12 11:33:36;;;;;;;24.17;16.80;;;;;;;7.22;100.00;102100.41;4974880;28;20065;-67
2021/12/12 11:36:03;;;;;;;22.87;17.17;;;;;;;7.26;100.00;102109.66;4972957;28;20022;-66
2021/12/12 11:38:46;;;;;;;23.67;16.38;;;;;;;7.29;100.00;102104.38;4971628;28;20278;-65
2021/12/12 11:41:17;;;;;;;24.17;16.67;;;;;;;7.31;100.00;102107.72;4972469;28;20514;-66
2021/12/12 11:43:54;;;;;;;22.73;16.13;;;;;;;7.32;100.00;102104.22;4973669;28;20027;-66
2021/12/12 11:46:34;;;;;;;23.23;16.90;;;;;;;7.31;100.00;102101.72;4973694;28;20043;-67
2021/12/12 11:49:11;;;;;;;21.48;16.10;;;;;;;7.34;100.00;102106.72;4973253;28;20050;-67
2021/12/12 11:51:43;;;;;;;21.00;16.70;;;;;;;7.36;100.00;102110.09;4969111;28;20114;-67
2021/12/12 11:54:23;;;;;;;23.42;15.77;;;;;;;7.37;100.00;102112.59;4967911;28;20378;-67
2021/12/12 11:56:54;;;;;;;21.73;16.15;;;;;;;7.38;100.00;102105.66;4950272;28;20046;-67
2021/12/12 11:59:32;;;;;;;17.92;15.00;;;;;;;7.39;100.00;102110.75;4973424;28;20486;-67